Positano Jet — IFTU — position and weather

sailwx.info

Track history (hours):
 
Tides and Currents Weather Stations Pressure Air Temp Water Temp Dewpoint Dewpoint Depression Visibility Wind Speed Wind Dir Waves Ship Positions

Positano Jet

Last reported at 2014-Aug-21 14:33 UTC. Time now 2014-Aug-22 02:03 UTC.
Position N 40°37' E 014°29'.

Length 23 m; draft 2 m.

Type: Ship. MMSI: 247160800.

Date/timePositionNaut miles runAvg speedWind from/ knotsBaromVisibWave heightAir tempDewpointWater temp
2014-Aug-21 14:33N 40°37' E 014°29'6 5.9
2014-Aug-21 13:33N 40°34' E 014°23'6 0.2
2014-Aug-20 11:33N 40°37' E 014°29'3 3.0
2014-Aug-20 10:33N 40°36' E 014°26'5 0.3
2014-Aug-19 16:33N 40°34' E 014°19'9 8.7
2014-Aug-19 15:34N 40°38' E 014°30'0 0.0
2014-Aug-19 14:20N 40°38' E 014°30'8 9.8
2014-Aug-19 13:34N 40°34' E 014°21'5 1.8
2014-Aug-19 10:33N 40°36' E 014°27'6 0.3
2014-Aug-18 16:33N 40°34' E 014°20'6 0.9
2014-Aug-18 10:33N 40°35' E 014°27'3 0.1
2014-Aug-16 10:22N 40°34' E 014°23'7 8.3
2014-Aug-16 09:33N 40°33' E 014°14'8 0.2
2014-Aug-14 12:16N 40°35' E 014°24'5 5.3
2014-Aug-14 11:22N 40°38' E 014°29'1 1.6
2014-Aug-14 10:33N 40°36' E 014°28'1111.0
2014-Aug-14 09:33N 40°33' E 014°14'1 0.1
2014-Aug-13 17:11N 40°34' E 014°16'8 1.5
2014-Aug-13 12:13N 40°35' E 014°26'4 5.7
2014-Aug-13 11:33N 40°38' E 014°29'6 6.5
2014-Aug-13 10:33N 40°34' E 014°22'6 4.0
2014-Aug-13 09:11N 40°33' E 014°15'7 0.4
2014-Aug-12 17:30N 40°35' E 014°23'2 2.3
2014-Aug-12 16:33N 40°34' E 014°21'7 7.4
2014-Aug-12 15:33N 40°37' E 014°29'0 0.0
2014-Aug-12 14:33N 40°37' E 014°29'8 7.6
2014-Aug-12 13:34N 40°34' E 014°20'3 3.0
2014-Aug-12 12:31N 40°34' E 014°16'1111.0
2014-Aug-12 11:33N 40°37' E 014°29'2 1.7
2014-Aug-12 10:33N 40°36' E 014°28'10 7.4
2014-Aug-12 09:10N 40°33' E 014°14'7 0.5
2014-Aug-11 17:24N 40°35' E 014°23'3 4.1
2014-Aug-11 16:33N 40°34' E 014°19'9 8.5
2014-Aug-11 15:33N 40°37' E 014°30'  
Track history (hours):
 
Tides and Currents Weather Stations Pressure Air Temp Water Temp Dewpoint Dewpoint Depression Visibility Wind Speed Wind Dir Waves Ship Positions

Positano Jet

Last reported at 2014-Aug-21 14:33 UTC. Time now 2014-Aug-22 02:03 UTC.
Position N 40°37' E 014°29'.

Length 23 m; draft 2 m.

Type: Ship. MMSI: 247160800.

Date/timePositionNaut miles runAvg speedWind from/ knotsBaromVisibWave heightAir tempDewpointWater temp
2014-Aug-21 14:33N 40°37' E 014°29'6 5.9
2014-Aug-21 13:33N 40°34' E 014°23'6 0.2
2014-Aug-20 11:33N 40°37' E 014°29'3 3.0
2014-Aug-20 10:33N 40°36' E 014°26'5 0.3
2014-Aug-19 16:33N 40°34' E 014°19'9 8.7
2014-Aug-19 15:34N 40°38' E 014°30'0 0.0
2014-Aug-19 14:20N 40°38' E 014°30'8 9.8
2014-Aug-19 13:34N 40°34' E 014°21'5 1.8
2014-Aug-19 10:33N 40°36' E 014°27'6 0.3
2014-Aug-18 16:33N 40°34' E 014°20'6 0.9
2014-Aug-18 10:33N 40°35' E 014°27'3 0.1
2014-Aug-16 10:22N 40°34' E 014°23'7 8.3
2014-Aug-16 09:33N 40°33' E 014°14'8 0.2
2014-Aug-14 12:16N 40°35' E 014°24'5 5.3
2014-Aug-14 11:22N 40°38' E 014°29'1 1.6
2014-Aug-14 10:33N 40°36' E 014°28'1111.0
2014-Aug-14 09:33N 40°33' E 014°14'1 0.1
2014-Aug-13 17:11N 40°34' E 014°16'8 1.5
2014-Aug-13 12:13N 40°35' E 014°26'4 5.7
2014-Aug-13 11:33N 40°38' E 014°29'6 6.5
2014-Aug-13 10:33N 40°34' E 014°22'6 4.0
2014-Aug-13 09:11N 40°33' E 014°15'7 0.4
2014-Aug-12 17:30N 40°35' E 014°23'2 2.3
2014-Aug-12 16:33N 40°34' E 014°21'7 7.4
2014-Aug-12 15:33N 40°37' E 014°29'0 0.0
2014-Aug-12 14:33N 40°37' E 014°29'8 7.6
2014-Aug-12 13:34N 40°34' E 014°20'3 3.0
2014-Aug-12 12:31N 40°34' E 014°16'1111.0
2014-Aug-12 11:33N 40°37' E 014°29'2 1.7
2014-Aug-12 10:33N 40°36' E 014°28'10 7.4
2014-Aug-12 09:10N 40°33' E 014°14'7 0.5
2014-Aug-11 17:24N 40°35' E 014°23'3 4.1
2014-Aug-11 16:33N 40°34' E 014°19'9 8.5
2014-Aug-11 15:33N 40°37' E 014°30'  

Dump ship's entire track history